sensor_id;sensor_type;location;lat;lon;timestamp;pressure;altitude;pressure_sealevel;temperature;humidity
68380;BME280;57711;53.196;19.638;2023-02-12T00:01:08;101547.90;;;3.00;73.37
68380;BME280;57711;53.196;19.638;2023-02-12T00:03:36;101542.98;;;2.99;73.37
68380;BME280;57711;53.196;19.638;2023-02-12T00:06:04;101554.55;;;2.95;73.32
68380;BME280;57711;53.196;19.638;2023-02-12T00:08:32;101555.91;;;2.92;73.44
68380;BME280;57711;53.196;19.638;2023-02-12T00:10:59;101565.70;;;2.93;73.39
68380;BME280;57711;53.196;19.638;2023-02-12T00:13:32;101577.60;;;2.95;73.20
68380;BME280;57711;53.196;19.638;2023-02-12T00:16:03;101586.86;;;2.96;73.17
68380;BME280;57711;53.196;19.638;2023-02-12T00:18:31;101590.77;;;3.01;73.19
68380;BME280;57711;53.196;19.638;2023-02-12T00:20:59;101609.38;;;3.06;73.23
68380;BME280;57711;53.196;19.638;2023-02-12T00:23:27;101621.30;;;3.07;73.12
68380;BME280;57711;53.196;19.638;2023-02-12T00:25:54;101610.42;;;3.06;73.09
68380;BME280;57711;53.196;19.638;2023-02-12T00:28:22;101610.08;;;3.01;72.95
68380;BME280;57711;53.196;19.638;2023-02-12T00:30:49;101615.34;;;2.94;73.01
68380;BME280;57711;53.196;19.638;2023-02-12T00:33:16;101623.40;;;2.93;73.27
68380;BME280;57711;53.196;19.638;2023-02-12T00:35:44;101631.14;;;2.91;73.19
68380;BME280;57711;53.196;19.638;2023-02-12T00:38:11;101625.67;;;2.89;73.23
68380;BME280;57711;53.196;19.638;2023-02-12T00:40:38;101629.30;;;2.88;73.27
68380;BME280;57711;53.196;19.638;2023-02-12T00:43:06;101632.16;;;2.88;73.22
68380;BME280;57711;53.196;19.638;2023-02-12T00:45:33;101642.83;;;2.89;73.18
68380;BME280;57711;53.196;19.638;2023-02-12T00:48:00;101640.08;;;2.91;73.31
68380;BME280;57711;53.196;19.638;2023-02-12T00:50:28;101643.20;;;2.94;73.21
68380;BME280;57711;53.196;19.638;2023-02-12T00:52:59;101643.42;;;2.93;73.07
68380;BME280;57711;53.196;19.638;2023-02-12T00:55:27;101647.59;;;2.91;73.12
68380;BME280;57711;53.196;19.638;2023-02-12T00:57:54;101651.94;;;2.89;73.06
68380;BME280;57711;53.196;19.638;2023-02-12T01:00:21;101646.61;;;2.88;73.09
68380;BME280;57711;53.196;19.638;2023-02-12T01:02:49;101653.44;;;2.87;73.11
68380;BME280;57711;53.196;19.638;2023-02-12T01:05:16;101660.03;;;2.87;73.25
68380;BME280;57711;53.196;19.638;2023-02-12T01:07:43;101655.38;;;2.88;73.22
68380;BME280;57711;53.196;19.638;2023-02-12T01:10:10;101654.15;;;2.87;73.08
68380;BME280;57711;53.196;19.638;2023-02-12T01:12:38;101660.73;;;2.83;73.13
68380;BME280;57711;53.196;19.638;2023-02-12T01:15:05;101662.42;;;2.80;73.08
68380;BME280;57711;53.196;19.638;2023-02-12T01:17:33;101664.77;;;2.80;73.09
68380;BME280;57711;53.196;19.638;2023-02-12T01:20:00;101669.33;;;2.82;73.08
68380;BME280;57711;53.196;19.638;2023-02-12T01:22:28;101666.41;;;2.84;73.03
68380;BME280;57711;53.196;19.638;2023-02-12T01:24:55;101665.85;;;2.85;73.05
68380;BME280;57711;53.196;19.638;2023-02-12T01:27:22;101670.04;;;2.88;73.06
68380;BME280;57711;53.196;19.638;2023-02-12T01:29:49;101684.46;;;2.89;73.05
68380;BME280;57711;53.196;19.638;2023-02-12T01:32:16;101684.80;;;2.90;72.98
68380;BME280;57711;53.196;19.638;2023-02-12T01:34:44;101686.52;;;2.91;73.08
68380;BME280;57711;53.196;19.638;2023-02-12T01:37:11;101693.29;;;2.92;73.02
68380;BME280;57711;53.196;19.638;2023-02-12T01:39:38;101699.25;;;2.90;72.94
68380;BME280;57711;53.196;19.638;2023-02-12T01:42:06;101703.05;;;2.88;73.08
68380;BME280;57711;53.196;19.638;2023-02-12T01:44:35;101705.25;;;2.87;73.16
68380;BME280;57711;53.196;19.638;2023-02-12T01:47:05;101709.10;;;2.84;72.96
68380;BME280;57711;53.196;19.638;2023-02-12T01:49:40;101716.56;;;2.80;72.97
68380;BME280;57711;53.196;19.638;2023-02-12T01:52:32;101719.94;;;2.80;72.98
68380;BME280;57711;53.196;19.638;2023-02-12T01:55:04;101724.30;;;2.83;72.99
68380;BME280;57711;53.196;19.638;2023-02-12T01:57:37;101733.39;;;2.84;72.85
68380;BME280;57711;53.196;19.638;2023-02-12T02:00:15;101742.81;;;2.86;72.73
68380;BME280;57711;53.196;19.638;2023-02-12T02:02:45;101748.55;;;2.85;72.74
68380;BME280;57711;53.196;19.638;2023-02-12T02:05:17;101758.01;;;2.85;72.77
68380;BME280;57711;53.196;19.638;2023-02-12T02:07:46;101758.02;;;2.85;72.79
68380;BME280;57711;53.196;19.638;2023-02-12T02:10:14;101762.98;;;2.81;72.62
68380;BME280;57711;53.196;19.638;2023-02-12T02:12:41;101769.65;;;2.73;72.44
68380;BME280;57711;53.196;19.638;2023-02-12T02:15:28;101768.48;;;2.65;72.45
68380;BME280;57711;53.196;19.638;2023-02-12T02:18:29;101775.24;;;2.60;72.60
68380;BME280;57711;53.196;19.638;2023-02-12T02:21:17;101777.67;;;2.62;72.62
68380;BME280;57711;53.196;19.638;2023-02-12T02:32:17;101780.77;;;2.72;72.34
68380;BME280;57711;53.196;19.638;2023-02-12T02:34:58;101780.48;;;2.70;72.47
68380;BME280;57711;53.196;19.638;2023-02-12T02:37:39;101783.59;;;2.68;72.37
68380;BME280;57711;53.196;19.638;2023-02-12T02:40:17;101785.52;;;2.62;72.38
68380;BME280;57711;53.196;19.638;2023-02-12T02:43:02;101782.67;;;2.57;72.25
68380;BME280;57711;53.196;19.638;2023-02-12T02:48:07;101781.38;;;2.47;72.37
68380;BME280;57711;53.196;19.638;2023-02-12T02:50:38;101788.05;;;2.45;72.42
68380;BME280;57711;53.196;19.638;2023-02-12T02:53:10;101787.11;;;2.40;72.19
68380;BME280;57711;53.196;19.638;2023-02-12T02:55:44;101791.04;;;2.40;72.32
68380;BME280;57711;53.196;19.638;2023-02-12T02:58:23;101798.20;;;2.39;72.26
68380;BME280;57711;53.196;19.638;2023-02-12T03:01:19;101800.56;;;2.38;72.12
68380;BME280;57711;53.196;19.638;2023-02-12T03:03:55;101802.95;;;2.36;72.08
68380;BME280;57711;53.196;19.638;2023-02-12T03:06:27;101800.77;;;2.31;72.08
68380;BME280;57711;53.196;19.638;2023-02-12T03:09:00;101800.84;;;2.29;72.13
68380;BME280;57711;53.196;19.638;2023-02-12T03:11:30;101798.70;;;2.29;72.19
68380;BME280;57711;53.196;19.638;2023-02-12T03:20:03;101809.16;;;2.19;72.07
68380;BME280;57711;53.196;19.638;2023-02-12T03:22:33;101815.35;;;2.15;72.12
68380;BME280;57711;53.196;19.638;2023-02-12T03:25:08;101817.58;;;2.12;72.14
68380;BME280;57711;53.196;19.638;2023-02-12T03:27:51;101816.61;;;2.08;72.07
68380;BME280;57711;53.196;19.638;2023-02-12T03:30:24;101823.14;;;2.05;72.11
68380;BME280;57711;53.196;19.638;2023-02-12T03:33:28;101824.45;;;2.02;72.15
68380;BME280;57711;53.196;19.638;2023-02-12T03:36:01;101832.49;;;2.02;72.13
68380;BME280;57711;53.196;19.638;2023-02-12T03:38:36;101840.85;;;2.03;72.11
68380;BME280;57711;53.196;19.638;2023-02-12T03:44:01;101845.77;;;2.06;72.07
68380;BME280;57711;53.196;19.638;2023-02-12T03:46:42;101850.44;;;2.04;72.03
68380;BME280;57711;53.196;19.638;2023-02-12T03:51:48;101863.00;;;2.02;72.03
68380;BME280;57711;53.196;19.638;2023-02-12T03:54:17;101872.02;;;1.98;71.91
68380;BME280;57711;53.196;19.638;2023-02-12T03:57:07;101869.26;;;1.95;71.96
68380;BME280;57711;53.196;19.638;2023-02-12T03:59:37;101867.23;;;1.91;71.90
68380;BME280;57711;53.196;19.638;2023-02-12T04:02:06;101866.82;;;1.86;71.93
68380;BME280;57711;53.196;19.638;2023-02-12T04:04:34;101869.42;;;1.82;71.94
68380;BME280;57711;53.196;19.638;2023-02-12T04:07:02;101869.40;;;1.77;71.91
68380;BME280;57711;53.196;19.638;2023-02-12T04:09:30;101883.42;;;1.72;71.88
68380;BME280;57711;53.196;19.638;2023-02-12T04:15:09;101887.65;;;1.67;71.83
68380;BME280;57711;53.196;19.638;2023-02-12T04:17:42;101888.79;;;1.65;71.76
68380;BME280;57711;53.196;19.638;2023-02-12T04:25:52;101901.65;;;1.64;71.74
68380;BME280;57711;53.196;19.638;2023-02-12T04:28:34;101903.79;;;1.64;71.87
68380;BME280;57711;53.196;19.638;2023-02-12T04:31:29;101909.00;;;1.62;71.70
68380;BME280;57711;53.196;19.638;2023-02-12T04:36:32;101912.50;;;1.58;71.77
68380;BME280;57711;53.196;19.638;2023-02-12T04:39:10;101924.67;;;1.56;71.70
68380;BME280;57711;53.196;19.638;2023-02-12T04:41:38;101934.58;;;1.52;71.68
68380;BME280;57711;53.196;19.638;2023-02-12T04:44:18;101930.92;;;1.48;71.72
68380;BME280;57711;53.196;19.638;2023-02-12T04:46:45;101931.92;;;1.43;71.64
68380;BME280;57711;53.196;19.638;2023-02-12T04:49:15;101931.88;;;1.38;71.70
68380;BME280;57711;53.196;19.638;2023-02-12T04:51:42;101936.60;;;1.34;71.64
68380;BME280;57711;53.196;19.638;2023-02-12T04:54:10;101936.89;;;1.30;71.68
68380;BME280;57711;53.196;19.638;2023-02-12T04:56:37;101936.98;;;1.26;71.71
68380;BME280;57711;53.196;19.638;2023-02-12T04:59:04;101938.42;;;1.25;71.57
68380;BME280;57711;53.196;19.638;2023-02-12T05:01:35;101945.39;;;1.24;71.52
68380;BME280;57711;53.196;19.638;2023-02-12T05:04:05;101951.49;;;1.23;71.50
68380;BME280;57711;53.196;19.638;2023-02-12T05:06:37;101954.73;;;1.21;71.56
68380;BME280;57711;53.196;19.638;2023-02-12T05:09:06;101954.92;;;1.20;71.48
68380;BME280;57711;53.196;19.638;2023-02-12T05:11:33;101953.67;;;1.21;71.52
68380;BME280;57711;53.196;19.638;2023-02-12T05:14:00;101958.14;;;1.20;71.62
68380;BME280;57711;53.196;19.638;2023-02-12T05:16:27;101961.70;;;1.20;71.53
68380;BME280;57711;53.196;19.638;2023-02-12T05:18:55;101965.46;;;1.20;71.62
68380;BME280;57711;53.196;19.638;2023-02-12T05:21:22;101968.33;;;1.19;71.55
68380;BME280;57711;53.196;19.638;2023-02-12T05:23:49;101970.89;;;1.15;71.63
68380;BME280;57711;53.196;19.638;2023-02-12T05:26:19;101974.90;;;1.12;71.43
68380;BME280;57711;53.196;19.638;2023-02-12T05:28:47;101979.42;;;1.08;71.46
68380;BME280;57711;53.196;19.638;2023-02-12T05:31:17;101980.59;;;1.04;71.39
68380;BME280;57711;53.196;19.638;2023-02-12T05:33:48;101979.65;;;0.98;71.38
68380;BME280;57711;53.196;19.638;2023-02-12T05:36:21;101983.27;;;0.95;71.43
68380;BME280;57711;53.196;19.638;2023-02-12T05:38:51;101986.82;;;0.88;71.25
68380;BME280;57711;53.196;19.638;2023-02-12T05:41:20;101989.52;;;0.86;71.32
68380;BME280;57711;53.196;19.638;2023-02-12T05:43:48;101992.16;;;0.88;71.33
68380;BME280;57711;53.196;19.638;2023-02-12T05:46:19;101997.65;;;0.89;71.32
68380;BME280;57711;53.196;19.638;2023-02-12T05:48:47;102001.73;;;0.91;71.35
68380;BME280;57711;53.196;19.638;2023-02-12T05:51:17;102002.98;;;0.90;71.29
68380;BME280;57711;53.196;19.638;2023-02-12T05:53:46;102012.42;;;0.90;71.29
68380;BME280;57711;53.196;19.638;2023-02-12T05:56:16;102016.53;;;0.88;71.27
68380;BME280;57711;53.196;19.638;2023-02-12T05:58:47;102011.98;;;0.85;71.26
68380;BME280;57711;53.196;19.638;2023-02-12T06:01:17;102012.42;;;0.81;71.16
68380;BME280;57711;53.196;19.638;2023-02-12T06:03:45;102020.57;;;0.74;71.33
68380;BME280;57711;53.196;19.638;2023-02-12T06:06:13;102025.08;;;0.71;71.35
68380;BME280;57711;53.196;19.638;2023-02-12T06:08:40;102018.74;;;0.67;71.26
68380;BME280;57711;53.196;19.638;2023-02-12T06:11:11;102021.31;;;0.63;71.23
68380;BME280;57711;53.196;19.638;2023-02-12T06:13:39;102022.27;;;0.60;71.25
68380;BME280;57711;53.196;19.638;2023-02-12T06:18:45;102034.06;;;0.57;71.22
68380;BME280;57711;53.196;19.638;2023-02-12T06:21:13;102039.94;;;0.58;71.14
68380;BME280;57711;53.196;19.638;2023-02-12T06:23:41;102042.97;;;0.57;71.13
68380;BME280;57711;53.196;19.638;2023-02-12T06:26:09;102043.09;;;0.60;71.17
68380;BME280;57711;53.196;19.638;2023-02-12T06:28:36;102043.73;;;0.64;71.18
68380;BME280;57711;53.196;19.638;2023-02-12T06:31:03;102053.10;;;0.67;71.25
68380;BME280;57711;53.196;19.638;2023-02-12T06:33:31;102067.10;;;0.70;71.33
68380;BME280;57711;53.196;19.638;2023-02-12T06:36:02;102065.11;;;0.72;71.31
68380;BME280;57711;53.196;19.638;2023-02-12T06:38:29;102068.23;;;0.76;71.30
68380;BME280;57711;53.196;19.638;2023-02-12T06:41:00;102077.64;;;0.78;71.36
68380;BME280;57711;53.196;19.638;2023-02-12T06:43:28;102076.02;;;0.79;71.29
68380;BME280;57711;53.196;19.638;2023-02-12T06:45:55;102076.60;;;0.77;71.24
68380;BME280;57711;53.196;19.638;2023-02-12T06:48:23;102076.77;;;0.77;71.26
68380;BME280;57711;53.196;19.638;2023-02-12T06:50:50;102074.24;;;0.79;71.38
68380;BME280;57711;53.196;19.638;2023-02-12T06:53:17;102074.88;;;0.83;71.35
68380;BME280;57711;53.196;19.638;2023-02-12T06:55:44;102070.90;;;0.86;71.36
68380;BME280;57711;53.196;19.638;2023-02-12T06:58:11;102071.52;;;0.90;71.37
68380;BME280;57711;53.196;19.638;2023-02-12T07:00:38;102077.83;;;0.95;71.43
68380;BME280;57711;53.196;19.638;2023-02-12T07:03:05;102078.88;;;0.97;71.19
68380;BME280;57711;53.196;19.638;2023-02-12T07:05:33;102084.14;;;1.01;71.24
68380;BME280;57711;53.196;19.638;2023-02-12T07:08:03;102076.45;;;1.11;71.36
68380;BME280;57711;53.196;19.638;2023-02-12T07:10:30;102075.42;;;1.18;71.33
68380;BME280;57711;53.196;19.638;2023-02-12T07:12:57;102073.52;;;1.23;71.46
68380;BME280;57711;53.196;19.638;2023-02-12T07:15:24;102078.59;;;1.28;71.50
68380;BME280;57711;53.196;19.638;2023-02-12T07:17:52;102086.52;;;1.33;71.44
68380;BME280;57711;53.196;19.638;2023-02-12T07:20:19;102085.36;;;1.36;71.45
68380;BME280;57711;53.196;19.638;2023-02-12T07:22:46;102089.58;;;1.39;71.48
68380;BME280;57711;53.196;19.638;2023-02-12T07:25:13;102093.50;;;1.39;71.28
68380;BME280;57711;53.196;19.638;2023-02-12T07:27:40;102091.95;;;1.37;71.38
68380;BME280;57711;53.196;19.638;2023-02-12T07:30:08;102091.79;;;1.36;71.42
68380;BME280;57711;53.196;19.638;2023-02-12T07:32:35;102098.67;;;1.39;71.32
68380;BME280;57711;53.196;19.638;2023-02-12T07:35:02;102102.30;;;1.45;71.55
68380;BME280;57711;53.196;19.638;2023-02-12T07:37:29;102104.93;;;1.55;71.47
68380;BME280;57711;53.196;19.638;2023-02-12T07:39:56;102111.80;;;1.59;71.30
68380;BME280;57711;53.196;19.638;2023-02-12T07:42:23;102117.00;;;1.65;71.25
68380;BME280;57711;53.196;19.638;2023-02-12T07:44:51;102119.53;;;1.72;71.33
68380;BME280;57711;53.196;19.638;2023-02-12T07:47:18;102120.96;;;1.79;71.47
68380;BME280;57711;53.196;19.638;2023-02-12T07:49:45;102123.72;;;1.83;71.37
68380;BME280;57711;53.196;19.638;2023-02-12T07:52:12;102125.87;;;1.91;71.45
68380;BME280;57711;53.196;19.638;2023-02-12T07:54:39;102126.70;;;1.94;71.34
68380;BME280;57711;53.196;19.638;2023-02-12T07:57:06;102127.77;;;1.94;71.34
68380;BME280;57711;53.196;19.638;2023-02-12T07:59:33;102128.52;;;2.00;71.58
68380;BME280;57711;53.196;19.638;2023-02-12T08:02:01;102122.67;;;2.06;71.58
68380;BME280;57711;53.196;19.638;2023-02-12T08:04:28;102120.27;;;2.16;71.56
68380;BME280;57711;53.196;19.638;2023-02-12T08:06:55;102118.02;;;2.29;71.54
68380;BME280;57711;53.196;19.638;2023-02-12T08:09:26;102120.05;;;2.40;71.58
68380;BME280;57711;53.196;19.638;2023-02-12T08:11:53;102122.01;;;2.54;71.52
68380;BME280;57711;53.196;19.638;2023-02-12T08:14:21;102119.98;;;2.63;71.36
68380;BME280;57711;53.196;19.638;2023-02-12T08:16:49;102117.77;;;2.73;71.56
68380;BME280;57711;53.196;19.638;2023-02-12T08:19:17;102114.80;;;2.84;71.51
68380;BME280;57711;53.196;19.638;2023-02-12T08:21:52;102113.82;;;2.93;71.64
68380;BME280;57711;53.196;19.638;2023-02-12T08:24:20;102112.09;;;3.04;71.66
68380;BME280;57711;53.196;19.638;2023-02-12T08:26:50;102117.09;;;3.11;71.42
68380;BME280;57711;53.196;19.638;2023-02-12T08:29:20;102123.44;;;3.14;71.44
68380;BME280;57711;53.196;19.638;2023-02-12T08:31:55;102120.38;;;3.21;71.49
68380;BME280;57711;53.196;19.638;2023-02-12T08:34:25;102122.63;;;3.24;71.34
68380;BME280;57711;53.196;19.638;2023-02-12T08:36:53;102125.78;;;3.26;71.12
68380;BME280;57711;53.196;19.638;2023-02-12T08:39:21;102127.23;;;3.31;71.25
68380;BME280;57711;53.196;19.638;2023-02-12T08:41:49;102133.77;;;3.34;71.00
68380;BME280;57711;53.196;19.638;2023-02-12T08:44:16;102130.30;;;3.36;71.20
68380;BME280;57711;53.196;19.638;2023-02-12T08:46:50;102128.99;;;3.38;71.26
68380;BME280;57711;53.196;19.638;2023-02-12T08:49:22;102130.45;;;3.37;71.20
68380;BME280;57711;53.196;19.638;2023-02-12T08:51:52;102130.18;;;3.40;71.27
68380;BME280;57711;53.196;19.638;2023-02-12T08:54:22;102132.58;;;3.38;71.15
68380;BME280;57711;53.196;19.638;2023-02-12T08:56:53;102130.29;;;3.37;71.13
68380;BME280;57711;53.196;19.638;2023-02-12T08:59:21;102127.22;;;3.38;71.23
68380;BME280;57711;53.196;19.638;2023-02-12T09:01:50;102124.23;;;3.42;71.24
68380;BME280;57711;53.196;19.638;2023-02-12T09:04:24;102120.98;;;3.49;71.19
68380;BME280;57711;53.196;19.638;2023-02-12T09:06:52;102119.15;;;3.62;71.35
68380;BME280;57711;53.196;19.638;2023-02-12T09:09:20;102115.52;;;3.70;71.25
68380;BME280;57711;53.196;19.638;2023-02-12T09:11:47;102115.64;;;3.78;71.24
68380;BME280;57711;53.196;19.638;2023-02-12T09:14:16;102120.95;;;3.80;71.09
68380;BME280;57711;53.196;19.638;2023-02-12T09:16:44;102121.85;;;3.80;71.10
68380;BME280;57711;53.196;19.638;2023-02-12T09:19:13;102125.62;;;3.79;70.90
68380;BME280;57711;53.196;19.638;2023-02-12T09:21:41;102126.08;;;3.76;70.97
68380;BME280;57711;53.196;19.638;2023-02-12T09:24:08;102125.59;;;3.68;70.80
68380;BME280;57711;53.196;19.638;2023-02-12T09:26:36;102128.58;;;3.65;70.97
68380;BME280;57711;53.196;19.638;2023-02-12T09:29:03;102129.97;;;3.66;71.10
68380;BME280;57711;53.196;19.638;2023-02-12T09:31:31;102133.63;;;3.63;70.73
68380;BME280;57711;53.196;19.638;2023-02-12T09:34:01;102136.04;;;3.60;70.79
68380;BME280;57711;53.196;19.638;2023-02-12T09:36:28;102136.90;;;3.62;70.96
68380;BME280;57711;53.196;19.638;2023-02-12T09:38:56;102146.78;;;3.60;70.80
68380;BME280;57711;53.196;19.638;2023-02-12T09:44:32;102155.95;;;3.52;70.72
68380;BME280;57711;53.196;19.638;2023-02-12T09:47:08;102159.43;;;3.50;70.71
68380;BME280;57711;53.196;19.638;2023-02-12T09:50:17;102163.15;;;3.51;70.81
68380;BME280;57711;53.196;19.638;2023-02-12T09:52:51;102162.46;;;3.55;70.87
68380;BME280;57711;53.196;19.638;2023-02-12T09:55:20;102160.42;;;3.58;70.79
68380;BME280;57711;53.196;19.638;2023-02-12T09:57:49;102159.50;;;3.60;70.83
68380;BME280;57711;53.196;19.638;2023-02-12T10:00:26;102155.02;;;3.60;70.77
68380;BME280;57711;53.196;19.638;2023-02-12T10:03:03;102159.93;;;3.57;70.72
68380;BME280;57711;53.196;19.638;2023-02-12T10:06:02;102157.25;;;3.51;70.75
68380;BME280;57711;53.196;19.638;2023-02-12T10:08:50;102155.77;;;3.52;70.91
68380;BME280;57711;53.196;19.638;2023-02-12T10:11:39;102154.98;;;3.49;70.62
68380;BME280;57711;53.196;19.638;2023-02-12T10:17:22;102155.48;;;3.44;70.55
68380;BME280;57711;53.196;19.638;2023-02-12T10:23:08;102150.45;;;3.45;70.59
68380;BME280;57711;53.196;19.638;2023-02-12T10:25:48;102151.79;;;3.42;70.65
68380;BME280;57711;53.196;19.638;2023-02-12T10:28:26;102157.25;;;3.45;70.64
68380;BME280;57711;53.196;19.638;2023-02-12T10:31:06;102158.44;;;3.47;70.68
68380;BME280;57711;53.196;19.638;2023-02-12T10:33:46;102156.20;;;3.49;70.62
68380;BME280;57711;53.196;19.638;2023-02-12T10:36:33;102154.73;;;3.51;70.74
68380;BME280;57711;53.196;19.638;2023-02-12T10:44:17;102145.04;;;3.52;70.81
68380;BME280;57711;53.196;19.638;2023-02-12T10:46:44;102142.73;;;3.51;70.64
68380;BME280;57711;53.196;19.638;2023-02-12T10:49:15;102141.79;;;3.48;70.50
68380;BME280;57711;53.196;19.638;2023-02-12T10:52:04;102147.06;;;3.45;70.42
68380;BME280;57711;53.196;19.638;2023-02-12T10:54:43;102143.39;;;3.42;70.53
68380;BME280;57711;53.196;19.638;2023-02-12T10:59:43;102146.08;;;3.42;70.54
68380;BME280;57711;53.196;19.638;2023-02-12T11:02:36;102147.14;;;3.42;70.60
68380;BME280;57711;53.196;19.638;2023-02-12T11:05:22;102146.16;;;3.38;70.47
68380;BME280;57711;53.196;19.638;2023-02-12T11:07:50;102141.95;;;3.35;70.35
68380;BME280;57711;53.196;19.638;2023-02-12T11:10:27;102143.08;;;3.33;70.25
68380;BME280;57711;53.196;19.638;2023-02-12T11:12:54;102146.10;;;3.34;70.39
68380;BME280;57711;53.196;19.638;2023-02-12T11:15:23;102150.61;;;3.39;70.49
68380;BME280;57711;53.196;19.638;2023-02-12T11:18:02;102143.38;;;3.42;70.45
68380;BME280;57711;53.196;19.638;2023-02-12T11:20:51;102142.98;;;3.43;70.35
68380;BME280;57711;53.196;19.638;2023-02-12T11:23:37;102139.47;;;3.40;70.32
68380;BME280;57711;53.196;19.638;2023-02-12T11:28:34;102124.98;;;3.48;70.43
68380;BME280;57711;53.196;19.638;2023-02-12T11:31:19;102124.05;;;3.54;70.40
68380;BME280;57711;53.196;19.638;2023-02-12T11:36:35;102120.58;;;3.74;70.51
68380;BME280;57711;53.196;19.638;2023-02-12T11:39:04;102122.02;;;3.80;70.51
68380;BME280;57711;53.196;19.638;2023-02-12T11:41:35;102124.16;;;3.86;70.58
68380;BME280;57711;53.196;19.638;2023-02-12T11:44:11;102121.98;;;3.92;70.53
68380;BME280;57711;53.196;19.638;2023-02-12T11:46:39;102115.80;;;3.96;70.37
68380;BME280;57711;53.196;19.638;2023-02-12T11:49:18;102116.10;;;3.98;69.97
68380;BME280;57711;53.196;19.638;2023-02-12T11:51:48;102115.34;;;3.93;70.01
68380;BME280;57711;53.196;19.638;2023-02-12T11:54:22;102111.88;;;3.89;70.15
68380;BME280;57711;53.196;19.638;2023-02-12T11:56:50;102112.88;;;3.86;70.02
68380;BME280;57711;53.196;19.638;2023-02-12T11:59:31;102111.04;;;3.82;70.12
68380;BME280;57711;53.196;19.638;2023-02-12T12:02:29;102108.45;;;3.79;70.21
68380;BME280;57711;53.196;19.638;2023-02-12T12:05:08;102111.36;;;3.78;70.17
68380;BME280;57711;53.196;19.638;2023-02-12T12:07:40;102108.09;;;3.73;70.02
68380;BME280;57711;53.196;19.638;2023-02-12T12:10:24;102104.29;;;3.69;70.11
68380;BME280;57711;53.196;19.638;2023-02-12T12:13:00;102103.02;;;3.69;70.22
68380;BME280;57711;53.196;19.638;2023-02-12T12:15:35;102099.40;;;3.71;70.33
68380;BME280;57711;53.196;19.638;2023-02-12T12:21:35;102095.55;;;3.74;70.31
68380;BME280;57711;53.196;19.638;2023-02-12T12:26:49;102095.00;;;3.80;70.37
68380;BME280;57711;53.196;19.638;2023-02-12T12:29:38;102090.71;;;3.85;70.36
68380;BME280;57711;53.196;19.638;2023-02-12T12:32:11;102087.92;;;3.89;70.36
68380;BME280;57711;53.196;19.638;2023-02-12T12:34:39;102086.08;;;3.91;70.31
68380;BME280;57711;53.196;19.638;2023-02-12T12:40:06;102082.09;;;3.81;70.07
68380;BME280;57711;53.196;19.638;2023-02-12T12:43:01;102081.41;;;3.79;70.02
68380;BME280;57711;53.196;19.638;2023-02-12T12:45:46;102084.98;;;3.74;70.13
68380;BME280;57711;53.196;19.638;2023-02-12T13:00:17;102069.04;;;3.57;70.14
68380;BME280;57711;53.196;19.638;2023-02-12T13:06:13;102071.50;;;3.53;70.05
68380;BME280;57711;53.196;19.638;2023-02-12T13:15:12;102060.79;;;3.41;70.00
68380;BME280;57711;53.196;19.638;2023-02-12T13:17:37;102057.34;;;3.37;69.95
68380;BME280;57711;53.196;19.638;2023-02-12T13:22:49;102061.71;;;3.40;70.03
68380;BME280;57711;53.196;19.638;2023-02-12T13:25:39;102061.27;;;3.43;70.09
68380;BME280;57711;53.196;19.638;2023-02-12T13:28:16;102061.08;;;3.44;70.16
68380;BME280;57711;53.196;19.638;2023-02-12T13:30:49;102061.58;;;3.45;70.18
68380;BME280;57711;53.196;19.638;2023-02-12T13:35:54;102061.47;;;3.43;70.04
68380;BME280;57711;53.196;19.638;2023-02-12T13:38:26;102059.59;;;3.39;69.96
68380;BME280;57711;53.196;19.638;2023-02-12T13:40:59;102064.42;;;3.33;69.93
68380;BME280;57711;53.196;19.638;2023-02-12T13:43:41;102067.92;;;3.30;69.84
68380;BME280;57711;53.196;19.638;2023-02-12T13:46:20;102071.75;;;3.27;69.98
68380;BME280;57711;53.196;19.638;2023-02-12T13:52:01;102070.70;;;3.20;70.01
68380;BME280;57711;53.196;19.638;2023-02-12T13:54:56;102064.91;;;3.17;70.06
68380;BME280;57711;53.196;19.638;2023-02-12T13:57:26;102060.14;;;3.15;70.05
68380;BME280;57711;53.196;19.638;2023-02-12T13:59:54;102056.48;;;3.12;69.87
68380;BME280;57711;53.196;19.638;2023-02-12T14:05:03;102060.03;;;3.06;70.03
68380;BME280;57711;53.196;19.638;2023-02-12T14:07:42;102061.48;;;3.06;69.99
68380;BME280;57711;53.196;19.638;2023-02-12T14:10:37;102056.27;;;3.07;70.01
68380;BME280;57711;53.196;19.638;2023-02-12T14:13:19;102058.20;;;3.08;70.04
68380;BME280;57711;53.196;19.638;2023-02-12T14:15:53;102061.98;;;3.07;70.01
68380;BME280;57711;53.196;19.638;2023-02-12T14:18:30;102068.44;;;3.06;70.02
68380;BME280;57711;53.196;19.638;2023-02-12T14:23:38;102058.14;;;3.03;70.08
68380;BME280;57711;53.196;19.638;2023-02-12T14:26:16;102056.38;;;3.03;69.94
68380;BME280;57711;53.196;19.638;2023-02-12T14:33:49;102060.40;;;3.06;70.08
68380;BME280;57711;53.196;19.638;2023-02-12T14:36:18;102052.36;;;3.06;69.98
68380;BME280;57711;53.196;19.638;2023-02-12T14:49:24;102045.00;;;2.95;70.15
68380;BME280;57711;53.196;19.638;2023-02-12T14:52:02;102061.34;;;2.92;70.09
68380;BME280;57711;53.196;19.638;2023-02-12T14:54:54;102068.12;;;2.86;69.91
68380;BME280;57711;53.196;19.638;2023-02-12T14:57:38;102076.11;;;2.81;69.94
68380;BME280;57711;53.196;19.638;2023-02-12T15:02:48;102075.92;;;2.75;70.01
68380;BME280;57711;53.196;19.638;2023-02-12T15:05:22;102076.50;;;2.73;70.05
68380;BME280;57711;53.196;19.638;2023-02-12T15:08:57;102068.90;;;2.70;69.99
68380;BME280;57711;53.196;19.638;2023-02-12T15:13:56;102056.12;;;2.74;70.18
68380;BME280;57711;53.196;19.638;2023-02-12T15:16:54;102050.68;;;2.77;70.23
68380;BME280;57711;53.196;19.638;2023-02-12T15:19:46;102052.63;;;2.78;70.12
68380;BME280;57711;53.196;19.638;2023-02-12T15:22:22;102056.20;;;2.78;70.23